sensor_id;sensor_type;location;lat;lon;timestamp;pressure;altitude;pressure_sealevel;temperature;humidity
7662;BME280;30314;48.184;11.510;2023-04-28T00:00:49;95906.53;;;8.85;100.00
7662;BME280;30314;48.184;11.510;2023-04-28T00:03:16;95905.50;;;8.86;100.00
7662;BME280;30314;48.184;11.510;2023-04-28T00:05:43;95898.13;;;8.83;100.00
7662;BME280;30314;48.184;11.510;2023-04-28T00:08:10;95903.69;;;8.77;100.00
7662;BME280;30314;48.184;11.510;2023-04-28T00:10:36;95900.00;;;8.78;100.00
7662;BME280;30314;48.184;11.510;2023-04-28T00:13:03;95893.72;;;8.73;100.00
7662;BME280;30314;48.184;11.510;2023-04-28T00:15:29;95898.97;;;8.73;100.00
7662;BME280;30314;48.184;11.510;2023-04-28T00:17:56;95895.28;;;8.74;100.00
7662;BME280;30314;48.184;11.510;2023-04-28T00:20:23;95890.00;;;8.74;100.00
7662;BME280;30314;48.184;11.510;2023-04-28T00:22:49;95888.44;;;8.73;100.00
7662;BME280;30314;48.184;11.510;2023-04-28T00:25:16;95887.38;;;8.80;100.00
7662;BME280;30314;48.184;11.510;2023-04-28T00:27:42;95883.19;;;8.73;100.00
7662;BME280;30314;48.184;11.510;2023-04-28T00:30:09;95879.53;;;8.69;100.00
7662;BME280;30314;48.184;11.510;2023-04-28T00:32:36;95870.06;;;8.63;100.00
7662;BME280;30314;48.184;11.510;2023-04-28T00:35:03;95869.00;;;8.64;100.00
7662;BME280;30314;48.184;11.510;2023-04-28T00:37:29;95866.38;;;8.64;100.00
7662;BME280;30314;48.184;11.510;2023-04-28T00:39:56;95863.78;;;8.59;100.00
7662;BME280;30314;48.184;11.510;2023-04-28T00:42:22;95869.03;;;8.59;100.00
7662;BME280;30314;48.184;11.510;2023-04-28T00:44:49;95874.81;;;8.61;100.00
7662;BME280;30314;48.184;11.510;2023-04-28T00:47:17;95876.94;;;8.59;100.00
7662;BME280;30314;48.184;11.510;2023-04-28T00:49:44;95861.44;;;8.52;100.00
7662;BME280;30314;48.184;11.510;2023-04-28T00:52:12;95878.31;;;8.51;100.00
7662;BME280;30314;48.184;11.510;2023-04-28T00:54:39;95880.16;;;8.45;100.00
7662;BME280;30314;48.184;11.510;2023-04-28T00:57:08;95880.69;;;8.48;100.00
7662;BME280;30314;48.184;11.510;2023-04-28T00:59:35;95873.88;;;8.41;100.00
7662;BME280;30314;48.184;11.510;2023-04-28T01:02:02;95869.19;;;8.33;100.00
7662;BME280;30314;48.184;11.510;2023-04-28T01:04:29;95866.00;;;8.36;100.00
7662;BME280;30314;48.184;11.510;2023-04-28T01:06:57;95866.03;;;8.31;100.00
7662;BME280;30314;48.184;11.510;2023-04-28T01:09:25;95861.31;;;8.28;100.00
7662;BME280;30314;48.184;11.510;2023-04-28T01:11:53;95863.94;;;8.28;100.00
7662;BME280;30314;48.184;11.510;2023-04-28T01:14:45;95850.00;;;8.27;100.00
7662;BME280;30314;48.184;11.510;2023-04-28T01:17:11;95850.25;;;8.31;100.00
7662;BME280;30314;48.184;11.510;2023-04-28T01:19:39;95853.94;;;8.30;100.00
7662;BME280;30314;48.184;11.510;2023-04-28T01:22:06;95842.34;;;8.26;100.00
7662;BME280;30314;48.184;11.510;2023-04-28T01:24:32;95839.75;;;8.21;100.00
7662;BME280;30314;48.184;11.510;2023-04-28T01:27:03;95840.81;;;8.20;100.00
7662;BME280;30314;48.184;11.510;2023-04-28T01:29:29;95839.25;;;8.18;100.00
7662;BME280;30314;48.184;11.510;2023-04-28T01:31:56;95838.22;;;8.14;100.00
7662;BME280;30314;48.184;11.510;2023-04-28T01:34:22;95828.19;;;8.22;100.00
7662;BME280;30314;48.184;11.510;2023-04-28T01:36:49;95834.50;;;8.21;100.00
7662;BME280;30314;48.184;11.510;2023-04-28T01:39:16;95835.00;;;8.23;100.00
7662;BME280;30314;48.184;11.510;2023-04-28T01:41:42;95832.38;;;8.23;100.00
7662;BME280;30314;48.184;11.510;2023-04-28T01:44:09;95826.88;;;8.19;100.00
7662;BME280;30314;48.184;11.510;2023-04-28T01:46:37;95815.31;;;8.15;100.00
7662;BME280;30314;48.184;11.510;2023-04-28T01:49:03;95820.03;;;8.18;100.00
7662;BME280;30314;48.184;11.510;2023-04-28T01:51:30;95830.06;;;8.11;100.00
7662;BME280;30314;48.184;11.510;2023-04-28T01:53:58;95832.41;;;8.12;100.00
7662;BME280;30314;48.184;11.510;2023-04-28T01:56:24;95816.41;;;8.03;100.00
7662;BME280;30314;48.184;11.510;2023-04-28T01:58:54;95826.66;;;8.10;100.00
7662;BME280;30314;48.184;11.510;2023-04-28T02:01:20;95824.81;;;8.11;100.00
7662;BME280;30314;48.184;11.510;2023-04-28T02:03:47;95831.69;;;8.07;100.00
7662;BME280;30314;48.184;11.510;2023-04-28T02:06:15;95840.03;;;8.19;100.00
7662;BME280;30314;48.184;11.510;2023-04-28T02:08:41;95846.09;;;8.20;100.00
7662;BME280;30314;48.184;11.510;2023-04-28T02:11:11;95830.81;;;8.22;100.00
7662;BME280;30314;48.184;11.510;2023-04-28T02:13:37;95839.78;;;8.15;100.00
7662;BME280;30314;48.184;11.510;2023-04-28T02:16:04;95841.88;;;8.18;100.00
7662;BME280;30314;48.184;11.510;2023-04-28T02:18:31;95849.22;;;8.22;100.00
7662;BME280;30314;48.184;11.510;2023-04-28T02:21:10;95844.00;;;8.16;100.00
7662;BME280;30314;48.184;11.510;2023-04-28T02:23:38;95850.84;;;8.17;100.00
7662;BME280;30314;48.184;11.510;2023-04-28T02:26:05;95836.84;;;8.27;100.00
7662;BME280;30314;48.184;11.510;2023-04-28T02:28:31;95840.50;;;8.31;100.00
7662;BME280;30314;48.184;11.510;2023-04-28T02:31:09;95831.28;;;8.34;100.00
7662;BME280;30314;48.184;11.510;2023-04-28T02:33:36;95830.72;;;8.37;100.00
7662;BME280;30314;48.184;11.510;2023-04-28T02:36:04;95818.66;;;8.31;100.00
7662;BME280;30314;48.184;11.510;2023-04-28T02:38:31;95823.91;;;8.36;100.00
7662;BME280;30314;48.184;11.510;2023-04-28T02:41:03;95804.69;;;8.36;100.00
7662;BME280;30314;48.184;11.510;2023-04-28T02:43:35;95820.66;;;8.50;100.00
7662;BME280;30314;48.184;11.510;2023-04-28T02:46:03;95805.66;;;8.50;100.00
7662;BME280;30314;48.184;11.510;2023-04-28T02:48:30;95819.75;;;8.70;100.00
7662;BME280;30314;48.184;11.510;2023-04-28T02:50:57;95800.22;;;8.76;100.00
7662;BME280;30314;48.184;11.510;2023-04-28T02:53:23;95791.22;;;8.82;100.00
7662;BME280;30314;48.184;11.510;2023-04-28T02:55:50;95788.06;;;8.80;100.00
7662;BME280;30314;48.184;11.510;2023-04-28T02:58:17;95793.91;;;8.77;100.00
7662;BME280;30314;48.184;11.510;2023-04-28T03:00:45;95795.53;;;8.73;100.00
7662;BME280;30314;48.184;11.510;2023-04-28T03:03:12;95793.66;;;8.73;100.00
7662;BME280;30314;48.184;11.510;2023-04-28T03:05:39;95793.38;;;8.75;100.00
7662;BME280;30314;48.184;11.510;2023-04-28T03:08:05;95786.50;;;8.79;100.00
7662;BME280;30314;48.184;11.510;2023-04-28T03:10:32;95785.50;;;8.70;100.00
7662;BME280;30314;48.184;11.510;2023-04-28T03:12:59;95801.09;;;8.66;100.00
7662;BME280;30314;48.184;11.510;2023-04-28T03:15:27;95795.28;;;8.64;100.00
7662;BME280;30314;48.184;11.510;2023-04-28T03:17:54;95786.78;;;8.78;100.00
7662;BME280;30314;48.184;11.510;2023-04-28T03:20:20;95792.56;;;8.80;100.00
7662;BME280;30314;48.184;11.510;2023-04-28T03:22:47;95799.16;;;8.77;100.00
7662;BME280;30314;48.184;11.510;2023-04-28T03:25:14;95798.38;;;8.77;100.00
7662;BME280;30314;48.184;11.510;2023-04-28T03:27:46;95791.72;;;8.84;100.00
7662;BME280;30314;48.184;11.510;2023-04-28T03:30:13;95792.53;;;8.85;100.00
7662;BME280;30314;48.184;11.510;2023-04-28T03:32:39;95791.41;;;8.91;100.00
7662;BME280;30314;48.184;11.510;2023-04-28T03:35:07;95784.03;;;8.93;100.00
7662;BME280;30314;48.184;11.510;2023-04-28T03:37:33;95773.25;;;8.90;100.00
7662;BME280;30314;48.184;11.510;2023-04-28T03:40:00;95777.50;;;8.85;100.00
7662;BME280;30314;48.184;11.510;2023-04-28T03:42:31;95765.19;;;8.76;100.00
7662;BME280;30314;48.184;11.510;2023-04-28T03:45:08;95782.56;;;8.77;100.00
7662;BME280;30314;48.184;11.510;2023-04-28T03:47:36;95791.53;;;8.76;100.00
7662;BME280;30314;48.184;11.510;2023-04-28T03:50:03;95792.84;;;8.78;100.00
7662;BME280;30314;48.184;11.510;2023-04-28T03:52:30;95792.78;;;8.83;100.00
7662;BME280;30314;48.184;11.510;2023-04-28T03:54:57;95796.25;;;8.79;100.00
7662;BME280;30314;48.184;11.510;2023-04-28T03:57:23;95783.91;;;8.74;100.00
7662;BME280;30314;48.184;11.510;2023-04-28T03:59:50;95801.75;;;8.82;100.00
7662;BME280;30314;48.184;11.510;2023-04-28T04:02:17;95813.63;;;8.80;100.00
7662;BME280;30314;48.184;11.510;2023-04-28T04:04:44;95801.00;;;8.77;100.00
7662;BME280;30314;48.184;11.510;2023-04-28T04:07:10;95792.09;;;8.72;100.00
7662;BME280;30314;48.184;11.510;2023-04-28T04:09:38;95798.16;;;8.73;100.00
7662;BME280;30314;48.184;11.510;2023-04-28T04:12:05;95798.38;;;8.77;100.00
7662;BME280;30314;48.184;11.510;2023-04-28T04:14:32;95802.56;;;8.78;100.00
7662;BME280;30314;48.184;11.510;2023-04-28T04:16:59;95807.88;;;8.72;100.00
7662;BME280;30314;48.184;11.510;2023-04-28T04:19:26;95808.44;;;8.69;100.00
7662;BME280;30314;48.184;11.510;2023-04-28T04:21:54;95803.94;;;8.70;100.00
7662;BME280;30314;48.184;11.510;2023-04-28T04:24:21;95797.91;;;8.69;100.00
7662;BME280;30314;48.184;11.510;2023-04-28T04:26:48;95802.34;;;8.74;100.00
7662;BME280;30314;48.184;11.510;2023-04-28T04:29:26;95789.97;;;8.74;100.00
7662;BME280;30314;48.184;11.510;2023-04-28T04:31:53;95775.28;;;8.68;100.00
7662;BME280;30314;48.184;11.510;2023-04-28T04:34:19;95772.94;;;8.62;100.00
7662;BME280;30314;48.184;11.510;2023-04-28T04:36:46;95777.47;;;8.51;100.00
7662;BME280;30314;48.184;11.510;2023-04-28T04:39:13;95776.72;;;8.45;100.00
7662;BME280;30314;48.184;11.510;2023-04-28T04:41:39;95775.16;;;8.44;100.00
7662;BME280;30314;48.184;11.510;2023-04-28T04:44:26;95782.53;;;8.42;100.00
7662;BME280;30314;48.184;11.510;2023-04-28T04:46:53;95763.91;;;8.33;100.00
7662;BME280;30314;48.184;11.510;2023-04-28T04:49:20;95771.50;;;8.40;100.00
7662;BME280;30314;48.184;11.510;2023-04-28T04:51:46;95776.50;;;8.41;100.00
7662;BME280;30314;48.184;11.510;2023-04-28T04:54:13;95772.00;;;8.47;100.00
7662;BME280;30314;48.184;11.510;2023-04-28T04:56:41;95782.75;;;8.51;100.00
7662;BME280;30314;48.184;11.510;2023-04-28T04:59:09;95778.22;;;8.56;100.00
7662;BME280;30314;48.184;11.510;2023-04-28T05:01:47;95783.50;;;8.56;100.00
7662;BME280;30314;48.184;11.510;2023-04-28T05:04:14;95792.44;;;8.60;100.00
7662;BME280;30314;48.184;11.510;2023-04-28T05:06:41;95797.47;;;8.57;100.00
7662;BME280;30314;48.184;11.510;2023-04-28T05:09:09;95805.34;;;8.57;100.00
7662;BME280;30314;48.184;11.510;2023-04-28T05:11:37;95809.28;;;8.59;100.00
7662;BME280;30314;48.184;11.510;2023-04-28T05:14:03;95810.50;;;8.72;100.00
7662;BME280;30314;48.184;11.510;2023-04-28T05:16:30;95815.28;;;8.70;100.00
7662;BME280;30314;48.184;11.510;2023-04-28T05:19:09;95808.44;;;8.69;100.00
7662;BME280;30314;48.184;11.510;2023-04-28T05:21:36;95818.41;;;8.72;100.00
7662;BME280;30314;48.184;11.510;2023-04-28T05:24:03;95812.88;;;8.74;100.00
7662;BME280;30314;48.184;11.510;2023-04-28T05:26:29;95804.19;;;8.73;100.00
7662;BME280;30314;48.184;11.510;2023-04-28T05:29:02;95813.38;;;8.76;100.00
7662;BME280;30314;48.184;11.510;2023-04-28T05:31:29;95795.72;;;8.77;100.00
7662;BME280;30314;48.184;11.510;2023-04-28T05:33:56;95804.56;;;8.91;100.00
7662;BME280;30314;48.184;11.510;2023-04-28T05:36:24;95800.94;;;8.87;100.00
7662;BME280;30314;48.184;11.510;2023-04-28T05:38:51;95796.47;;;8.87;100.00
7662;BME280;30314;48.184;11.510;2023-04-28T05:41:18;95797.72;;;8.90;100.00
7662;BME280;30314;48.184;11.510;2023-04-28T05:43:45;95792.19;;;8.92;100.00
7662;BME280;30314;48.184;11.510;2023-04-28T05:46:13;95783.56;;;8.86;100.00
7662;BME280;30314;48.184;11.510;2023-04-28T05:48:56;95797.09;;;9.03;100.00
7662;BME280;30314;48.184;11.510;2023-04-28T05:51:23;95788.38;;;9.08;100.00
7662;BME280;30314;48.184;11.510;2023-04-28T05:53:50;95771.25;;;9.06;100.00
7662;BME280;30314;48.184;11.510;2023-04-28T05:56:16;95798.59;;;9.20;100.00
7662;BME280;30314;48.184;11.510;2023-04-28T05:58:44;95807.19;;;9.26;100.00
7662;BME280;30314;48.184;11.510;2023-04-28T06:01:10;95803.78;;;9.25;100.00
7662;BME280;30314;48.184;11.510;2023-04-28T06:03:38;95815.41;;;9.24;100.00
7662;BME280;30314;48.184;11.510;2023-04-28T06:06:11;95811.19;;;9.23;100.00
7662;BME280;30314;48.184;11.510;2023-04-28T06:08:39;95808.19;;;9.35;100.00
7662;BME280;30314;48.184;11.510;2023-04-28T06:11:05;95805.28;;;9.37;100.00
7662;BME280;30314;48.184;11.510;2023-04-28T06:13:32;95803.16;;;9.39;100.00
7662;BME280;30314;48.184;11.510;2023-04-28T06:15:59;95796.81;;;9.40;100.00
7662;BME280;30314;48.184;11.510;2023-04-28T06:18:26;95795.50;;;9.37;100.00
7662;BME280;30314;48.184;11.510;2023-04-28T06:20:52;95800.56;;;9.34;100.00
7662;BME280;30314;48.184;11.510;2023-04-28T06:23:19;95796.06;;;9.34;100.00
7662;BME280;30314;48.184;11.510;2023-04-28T06:25:47;95792.59;;;9.39;100.00
7662;BME280;30314;48.184;11.510;2023-04-28T06:28:14;95788.41;;;9.38;100.00
7662;BME280;30314;48.184;11.510;2023-04-28T06:30:40;95781.09;;;9.29;100.00
7662;BME280;30314;48.184;11.510;2023-04-28T06:33:07;95778.84;;;9.42;100.00
7662;BME280;30314;48.184;11.510;2023-04-28T06:35:34;95762.28;;;9.41;100.00
7662;BME280;30314;48.184;11.510;2023-04-28T06:38:01;95758.41;;;9.34;100.00
7662;BME280;30314;48.184;11.510;2023-04-28T06:40:29;95779.91;;;9.65;100.00
7662;BME280;30314;48.184;11.510;2023-04-28T06:42:57;95771.34;;;9.54;100.00
7662;BME280;30314;48.184;11.510;2023-04-28T06:45:33;95768.16;;;9.57;100.00
7662;BME280;30314;48.184;11.510;2023-04-28T06:47:59;95775.44;;;9.66;100.00
7662;BME280;30314;48.184;11.510;2023-04-28T06:50:27;95773.81;;;9.70;100.00
7662;BME280;30314;48.184;11.510;2023-04-28T06:52:53;95756.16;;;9.70;100.00
7662;BME280;30314;48.184;11.510;2023-04-28T06:55:20;95744.06;;;9.89;100.00
7662;BME280;30314;48.184;11.510;2023-04-28T06:57:46;95731.63;;;9.89;100.00
7662;BME280;30314;48.184;11.510;2023-04-28T07:00:13;95738.44;;;10.14;100.00
7662;BME280;30314;48.184;11.510;2023-04-28T07:02:40;95736.56;;;10.34;100.00
7662;BME280;30314;48.184;11.510;2023-04-28T07:05:07;95748.47;;;10.51;100.00
7662;BME280;30314;48.184;11.510;2023-04-28T07:07:34;95747.19;;;10.67;100.00
7662;BME280;30314;48.184;11.510;2023-04-28T07:10:01;95751.13;;;10.84;100.00
7662;BME280;30314;48.184;11.510;2023-04-28T07:12:28;95749.19;;;10.90;100.00
7662;BME280;30314;48.184;11.510;2023-04-28T07:14:54;95738.31;;;10.77;100.00
7662;BME280;30314;48.184;11.510;2023-04-28T07:17:21;95748.34;;;10.94;100.00
7662;BME280;30314;48.184;11.510;2023-04-28T07:19:47;95743.69;;;10.86;100.00
7662;BME280;30314;48.184;11.510;2023-04-28T07:22:16;95749.91;;;10.95;100.00
7662;BME280;30314;48.184;11.510;2023-04-28T07:24:43;95721.50;;;10.87;100.00
7662;BME280;30314;48.184;11.510;2023-04-28T07:27:09;95741.66;;;10.97;100.00
7662;BME280;30314;48.184;11.510;2023-04-28T07:29:36;95745.59;;;10.99;100.00
7662;BME280;30314;48.184;11.510;2023-04-28T07:32:03;95738.25;;;10.96;100.00
7662;BME280;30314;48.184;11.510;2023-04-28T07:34:36;95755.56;;;11.03;100.00
7662;BME280;30314;48.184;11.510;2023-04-28T07:37:04;95752.88;;;11.08;100.00
7662;BME280;30314;48.184;11.510;2023-04-28T07:39:33;95757.00;;;11.14;100.00
7662;BME280;30314;48.184;11.510;2023-04-28T07:42:00;95756.81;;;11.24;100.00
7662;BME280;30314;48.184;11.510;2023-04-28T07:44:28;95749.06;;;11.14;100.00
7662;BME280;30314;48.184;11.510;2023-04-28T07:46:55;95760.38;;;11.34;100.00
7662;BME280;30314;48.184;11.510;2023-04-28T07:49:22;95724.44;;;10.99;100.00
7662;BME280;30314;48.184;11.510;2023-04-28T07:51:48;95759.72;;;11.09;100.00
7662;BME280;30314;48.184;11.510;2023-04-28T07:54:17;95757.22;;;11.18;100.00
7662;BME280;30314;48.184;11.510;2023-04-28T07:56:44;95760.94;;;11.17;100.00
7662;BME280;30314;48.184;11.510;2023-04-28T07:59:10;95772.41;;;11.26;100.00
7662;BME280;30314;48.184;11.510;2023-04-28T08:01:37;95768.00;;;11.21;100.00
7662;BME280;30314;48.184;11.510;2023-04-28T08:04:03;95767.59;;;11.28;100.00
7662;BME280;30314;48.184;11.510;2023-04-28T08:06:31;95761.22;;;11.15;100.00
7662;BME280;30314;48.184;11.510;2023-04-28T08:08:59;95745.09;;;10.97;100.00
7662;BME280;30314;48.184;11.510;2023-04-28T08:11:27;95768.38;;;11.15;100.00
7662;BME280;30314;48.184;11.510;2023-04-28T08:13:53;95752.19;;;11.16;100.00
7662;BME280;30314;48.184;11.510;2023-04-28T08:16:20;95758.41;;;11.25;100.00
7662;BME280;30314;48.184;11.510;2023-04-28T08:18:48;95749.00;;;11.19;100.00
7662;BME280;30314;48.184;11.510;2023-04-28T08:21:14;95742.84;;;11.05;100.00
7662;BME280;30314;48.184;11.510;2023-04-28T08:23:41;95727.38;;;10.98;100.00
7662;BME280;30314;48.184;11.510;2023-04-28T08:26:08;95738.00;;;11.12;100.00
7662;BME280;30314;48.184;11.510;2023-04-28T08:28:34;95735.84;;;11.14;100.00
7662;BME280;30314;48.184;11.510;2023-04-28T08:31:01;95752.50;;;11.15;100.00
7662;BME280;30314;48.184;11.510;2023-04-28T08:33:28;95735.13;;;10.94;100.00
7662;BME280;30314;48.184;11.510;2023-04-28T08:35:55;95732.00;;;10.92;100.00
7662;BME280;30314;48.184;11.510;2023-04-28T08:38:22;95747.97;;;11.01;100.00
7662;BME280;30314;48.184;11.510;2023-04-28T08:40:50;95717.56;;;10.84;100.00
7662;BME280;30314;48.184;11.510;2023-04-28T08:43:17;95733.41;;;11.18;100.00
7662;BME280;30314;48.184;11.510;2023-04-28T08:45:46;95712.97;;;10.90;100.00
7662;BME280;30314;48.184;11.510;2023-04-28T08:48:20;95734.06;;;11.09;100.00
7662;BME280;30314;48.184;11.510;2023-04-28T08:50:49;95716.03;;;10.97;100.00
7662;BME280;30314;48.184;11.510;2023-04-28T08:53:24;95712.13;;;10.95;100.00
7662;BME280;30314;48.184;11.510;2023-04-28T08:55:56;95729.69;;;11.19;100.00
7662;BME280;30314;48.184;11.510;2023-04-28T08:58:24;95729.81;;;11.13;100.00
7662;BME280;30314;48.184;11.510;2023-04-28T09:00:51;95718.25;;;11.23;100.00
7662;BME280;30314;48.184;11.510;2023-04-28T09:03:19;95715.69;;;11.18;100.00
7662;BME280;30314;48.184;11.510;2023-04-28T09:05:46;95698.78;;;11.19;100.00
7662;BME280;30314;48.184;11.510;2023-04-28T09:08:13;95714.44;;;11.30;100.00
7662;BME280;30314;48.184;11.510;2023-04-28T09:10:40;95712.75;;;11.20;100.00
7662;BME280;30314;48.184;11.510;2023-04-28T09:13:06;95708.66;;;11.27;100.00
7662;BME280;30314;48.184;11.510;2023-04-28T09:15:37;95719.63;;;11.21;100.00
7662;BME280;30314;48.184;11.510;2023-04-28T09:18:07;95704.16;;;11.28;100.00
7662;BME280;30314;48.184;11.510;2023-04-28T09:20:34;95702.59;;;11.27;100.00
7662;BME280;30314;48.184;11.510;2023-04-28T09:23:14;95695.91;;;11.30;100.00
7662;BME280;30314;48.184;11.510;2023-04-28T09:26:01;95704.56;;;11.21;100.00
7662;BME280;30314;48.184;11.510;2023-04-28T09:28:29;95695.81;;;11.21;100.00
7662;BME280;30314;48.184;11.510;2023-04-28T09:30:56;95700.41;;;11.15;100.00
7662;BME280;30314;48.184;11.510;2023-04-28T09:33:22;95706.84;;;11.09;100.00
7662;BME280;30314;48.184;11.510;2023-04-28T09:35:49;95699.59;;;11.00;100.00
7662;BME280;30314;48.184;11.510;2023-04-28T09:38:18;95694.63;;;10.99;100.00
7662;BME280;30314;48.184;11.510;2023-04-28T09:41:01;95698.19;;;10.89;100.00
7662;BME280;30314;48.184;11.510;2023-04-28T09:43:33;95681.38;;;10.85;100.00
7662;BME280;30314;48.184;11.510;2023-04-28T09:46:01;95692.84;;;10.94;100.00
7662;BME280;30314;48.184;11.510;2023-04-28T09:48:36;95698.31;;;10.98;100.00
7662;BME280;30314;48.184;11.510;2023-04-28T09:51:06;95686.06;;;10.88;100.00
7662;BME280;30314;48.184;11.510;2023-04-28T09:53:33;95689.88;;;10.82;100.00
7662;BME280;30314;48.184;11.510;2023-04-28T09:56:02;95676.56;;;10.73;100.00
7662;BME280;30314;48.184;11.510;2023-04-28T09:58:33;95687.94;;;10.88;100.00
7662;BME280;30314;48.184;11.510;2023-04-28T10:01:00;95690.00;;;11.05;100.00
7662;BME280;30314;48.184;11.510;2023-04-28T10:03:29;95696.19;;;11.00;100.00
7662;BME280;30314;48.184;11.510;2023-04-28T10:06:00;95695.38;;;10.99;100.00
7662;BME280;30314;48.184;11.510;2023-04-28T10:08:27;95690.69;;;11.10;100.00
7662;BME280;30314;48.184;11.510;2023-04-28T10:10:54;95684.53;;;11.01;100.00
7662;BME280;30314;48.184;11.510;2023-04-28T10:13:22;95686.88;;;11.03;100.00
7662;BME280;30314;48.184;11.510;2023-04-28T10:15:50;95683.47;;;11.02;100.00
7662;BME280;30314;48.184;11.510;2023-04-28T10:18:22;95692.75;;;10.99;100.00
7662;BME280;30314;48.184;11.510;2023-04-28T10:20:54;95679.81;;;10.84;100.00
7662;BME280;30314;48.184;11.510;2023-04-28T10:29:48;95679.03;;;10.97;100.00
7662;BME280;30314;48.184;11.510;2023-04-28T10:32:22;95674.03;;;10.96;100.00
7662;BME280;30314;48.184;11.510;2023-04-28T10:34:51;95665.44;;;10.90;100.00
7662;BME280;30314;48.184;11.510;2023-04-28T10:37:18;95673.34;;;10.90;100.00
7662;BME280;30314;48.184;11.510;2023-04-28T10:42:53;95674.16;;;11.05;100.00
7662;BME280;30314;48.184;11.510;2023-04-28T10:56:24;95670.84;;;10.99;100.00
7662;BME280;30314;48.184;11.510;2023-04-28T10:58:53;95675.31;;;10.98;100.00
7662;BME280;30314;48.184;11.510;2023-04-28T11:09:46;95683.66;;;11.06;100.00
7662;BME280;30314;48.184;11.510;2023-04-28T11:16:57;95675.13;;;10.95;100.00
7662;BME280;30314;48.184;11.510;2023-04-28T11:19:29;95691.63;;;11.20;100.00
7662;BME280;30314;48.184;11.510;2023-04-28T11:22:05;95702.28;;;11.15;100.00
7662;BME280;30314;48.184;11.510;2023-04-28T11:24:37;95684.44;;;10.92;100.00
7662;BME280;30314;48.184;11.510;2023-04-28T11:27:03;95685.78;;;11.04;100.00
7662;BME280;30314;48.184;11.510;2023-04-28T11:29:37;95691.38;;;11.02;100.00
7662;BME280;30314;48.184;11.510;2023-04-28T11:32:07;95692.66;;;11.05;100.00
7662;BME280;30314;48.184;11.510;2023-04-28T11:34:35;95670.09;;;11.12;100.00
7662;BME280;30314;48.184;11.510;2023-04-28T11:37:02;95693.34;;;11.10;100.00
7662;BME280;30314;48.184;11.510;2023-04-28T11:39:30;95693.34;;;11.10;100.00
7662;BME280;30314;48.184;11.510;2023-04-28T11:41:59;95694.53;;;11.18;100.00
7662;BME280;30314;48.184;11.510;2023-04-28T11:44:27;95683.97;;;11.18;100.00
7662;BME280;30314;48.184;11.510;2023-04-28T11:46:58;95689.56;;;11.31;100.00
7662;BME280;30314;48.184;11.510;2023-04-28T11:49:29;95689.66;;;11.25;100.00
7662;BME280;30314;48.184;11.510;2023-04-28T11:51:56;95690.16;;;11.27;100.00
7662;BME280;30314;48.184;11.510;2023-04-28T11:54:27;95695.44;;;11.27;100.00
7662;BME280;30314;48.184;11.510;2023-04-28T11:56:56;95680.66;;;11.26;100.00
7662;BME280;30314;48.184;11.510;2023-04-28T11:59:33;95688.88;;;11.25;100.00
7662;BME280;30314;48.184;11.510;2023-04-28T12:02:04;95693.47;;;11.33;100.00
7662;BME280;30314;48.184;11.510;2023-04-28T12:07:13;95685.94;;;11.26;100.00
7662;BME280;30314;48.184;11.510;2023-04-28T12:09:45;95689.56;;;11.31;100.00
7662;BME280;30314;48.184;11.510;2023-04-28T12:12:18;95686.63;;;11.32;100.00
7662;BME280;30314;48.184;11.510;2023-04-28T12:15:12;95670.69;;;11.23;100.00
7662;BME280;30314;48.184;11.510;2023-04-28T12:17:47;95675.94;;;11.37;100.00
7662;BME280;30314;48.184;11.510;2023-04-28T12:20:35;95683.19;;;11.60;100.00
7662;BME280;30314;48.184;11.510;2023-04-28T12:23:02;95671.69;;;11.64;100.00
7662;BME280;30314;48.184;11.510;2023-04-28T12:25:32;95696.28;;;11.79;100.00
7662;BME280;30314;48.184;11.510;2023-04-28T12:28:03;95699.72;;;11.79;100.00
7662;BME280;30314;48.184;11.510;2023-04-28T12:30:43;95655.47;;;11.57;100.00
7662;BME280;30314;48.184;11.510;2023-04-28T12:33:24;95702.69;;;12.01;100.00
7662;BME280;30314;48.184;11.510;2023-04-28T12:35:53;95686.59;;;12.11;100.00
7662;BME280;30314;48.184;11.510;2023-04-28T12:38:28;95692.56;;;12.17;100.00
7662;BME280;30314;48.184;11.510;2023-04-28T12:40:55;95657.22;;;11.98;100.00
7662;BME280;30314;48.184;11.510;2023-04-28T12:43:22;95660.97;;;11.97;100.00
7662;BME280;30314;48.184;11.510;2023-04-28T12:45:50;95679.75;;;12.10;100.00
7662;BME280;30314;48.184;11.510;2023-04-28T12:48:23;95659.94;;;12.07;100.00
7662;BME280;30314;48.184;11.510;2023-04-28T12:50:50;95690.31;;;12.10;100.00
7662;BME280;30314;48.184;11.510;2023-04-28T12:53:17;95692.97;;;12.10;100.00
7662;BME280;30314;48.184;11.510;2023-04-28T12:55:44;95687.13;;;12.22;100.00
7662;BME280;30314;48.184;11.510;2023-04-28T12:58:11;95689.69;;;12.27;100.00
7662;BME280;30314;48.184;11.510;2023-04-28T13:00:38;95687.75;;;12.19;100.00
7662;BME280;30314;48.184;11.510;2023-04-28T13:03:05;95680.69;;;12.14;100.00
7662;BME280;30314;48.184;11.510;2023-04-28T13:05:33;95681.19;;;12.39;100.00
7662;BME280;30314;48.184;11.510;2023-04-28T13:08:00;95682.84;;;12.26;100.00
7662;BME280;30314;48.184;11.510;2023-04-28T13:10:27;95676.78;;;12.34;100.00
7662;BME280;30314;48.184;11.510;2023-04-28T13:12:54;95680.44;;;12.38;100.00
7662;BME280;30314;48.184;11.510;2023-04-28T13:15:20;95668.91;;;12.43;100.00
7662;BME280;30314;48.184;11.510;2023-04-28T13:17:47;95673.25;;;12.39;100.00
7662;BME280;30314;48.184;11.510;2023-04-28T13:20:14;95668.44;;;12.41;100.00
7662;BME280;30314;48.184;11.510;2023-04-28T13:22:41;95673.91;;;12.45;100.00
7662;BME280;30314;48.184;11.510;2023-04-28T13:25:08;95653.75;;;12.35;100.00
7662;BME280;30314;48.184;11.510;2023-04-28T13:27:34;95663.31;;;12.45;100.00
7662;BME280;30314;48.184;11.510;2023-04-28T13:30:03;95659.94;;;12.53;100.00
7662;BME280;30314;48.184;11.510;2023-04-28T13:32:30;95662.91;;;12.51;100.00
7662;BME280;30314;48.184;11.510;2023-04-28T13:34:58;95662.09;;;12.51;100.00
7662;BME280;30314;48.184;11.510;2023-04-28T13:37:25;95651.88;;;12.58;100.00